Time;durP1;ratioP1;P1;durP2;ratioP2;P2;SDS_P1;SDS_P2;PMS_P1;PMS_P2;Temp;Humidity;BMP_temperature;BMP_pressure;BME280_temperature;BME280_humidity;BME280_pressure;Samples;Min_cycle;Max_cycle;Signal;HPM_P1;HPM_P2
2022/05/07 00:00:11;;;;;;;1071.68;999.90;;;;;;;13.97;54.35;101785.66;689026;28;45224;-68
2022/05/07 00:00:33;;;;;;;1080.88;999.90;;;;;;;13.96;54.10;101781.22;689746;28;22405;-69
2022/05/07 00:00:54;;;;;;;1075.68;999.90;;;;;;;13.97;54.04;101787.53;689037;28;45218;-69
2022/05/07 00:01:17;;;;;;;1084.10;999.90;;;;;;;13.97;54.38;101785.66;690123;28;23563;-68
2022/05/07 00:01:39;;;;;;;1074.90;999.90;;;;;;;13.95;54.37;101782.25;685049;28;67497;-69
2022/05/07 00:02:00;;;;;;;1069.53;999.90;;;;;;;13.97;54.17;101787.53;685933;28;69365;-68
2022/05/07 00:02:24;;;;;;;1068.97;999.67;;;;;;;13.92;54.24;101782.59;687040;28;23515;-68
2022/05/07 00:02:45;;;;;;;1066.97;998.13;;;;;;;13.96;54.39;101780.38;685654;28;69261;-67
2022/05/07 00:03:07;;;;;;;1076.93;999.90;;;;;;;13.95;54.17;101784.97;687436;28;21466;-68
2022/05/07 00:03:28;;;;;;;1079.40;999.90;;;;;;;13.95;54.05;101781.41;686372;28;44257;-67
2022/05/07 00:03:49;;;;;;;1075.75;999.90;;;;;;;13.92;54.05;101777.19;686715;28;22399;-68
2022/05/07 00:04:10;;;;;;;1070.25;999.90;;;;;;;13.91;53.81;101778.19;686839;28;21472;-68
2022/05/07 00:04:32;;;;;;;1061.97;993.38;;;;;;;13.86;53.88;101780.59;687076;28;21520;-68
2022/05/07 00:04:56;;;;;;;1058.55;990.15;;;;;;;13.91;53.45;101780.06;686476;28;47189;-68
2022/05/07 00:05:19;;;;;;;1063.93;995.35;;;;;;;13.88;53.86;101782.09;684574;28;92174;-68
2022/05/07 00:05:43;;;;;;;1069.65;999.90;;;;;;;13.87;53.87;101782.25;685622;28;69353;-67
2022/05/07 00:06:05;;;;;;;1074.15;999.90;;;;;;;13.86;54.27;101780.59;685119;28;89675;-68
2022/05/07 00:06:26;;;;;;;1063.50;994.88;;;;;;;13.85;54.26;101781.59;660899;28;46256;-69
2022/05/07 00:06:49;;;;;;;1063.60;994.83;;;;;;;13.84;54.28;101786.19;689363;28;23618;-70
2022/05/07 00:07:10;;;;;;;1075.57;999.90;;;;;;;13.82;54.38;101782.81;685407;28;69330;-68
2022/05/07 00:07:32;;;;;;;1074.40;999.90;;;;;;;13.82;54.46;101782.81;686649;28;22183;-68
2022/05/07 00:07:53;;;;;;;1068.88;999.88;;;;;;;13.82;54.46;101779.22;686225;28;47968;-68
2022/05/07 00:08:16;;;;;;;1073.90;999.90;;;;;;;13.78;54.44;101777.91;687334;28;1513;-68
2022/05/07 00:08:37;;;;;;;1075.10;999.90;;;;;;;13.79;54.27;101785.00;687059;28;21501;-68
2022/05/07 00:08:59;;;;;;;1072.30;999.90;;;;;;;13.76;54.57;101778.06;685948;28;45261;-67
2022/05/07 00:09:20;;;;;;;1068.80;998.97;;;;;;;13.78;54.42;101780.63;686295;28;43965;-68
2022/05/07 00:09:41;;;;;;;1067.18;998.25;;;;;;;13.77;54.79;101782.47;686650;28;22398;-68
2022/05/07 00:10:03;;;;;;;1071.55;999.90;;;;;;;13.75;54.78;101780.97;687428;28;22393;-68
2022/05/07 00:10:25;;;;;;;1065.95;997.17;;;;;;;13.76;54.56;101782.63;688726;28;46377;-67
2022/05/07 00:10:47;;;;;;;1065.88;997.08;;;;;;;13.74;54.87;101787.41;688337;28;46508;-69
2022/05/07 00:11:08;;;;;;;1068.93;999.85;;;;;;;13.70;55.01;101776.03;689598;28;22377;-68
2022/05/07 00:11:30;;;;;;;1073.88;999.90;;;;;;;13.70;54.84;101779.59;688692;28;21541;-68
2022/05/07 00:11:51;;;;;;;1075.03;999.90;;;;;;;13.68;54.74;101783.50;688927;28;44460;-68
2022/05/07 00:12:13;;;;;;;1074.10;999.90;;;;;;;13.65;55.07;101775.69;689011;28;46308;-67
2022/05/07 00:12:34;;;;;;;1062.15;993.53;;;;;;;13.61;54.95;101780.63;689609;28;21488;-68
2022/05/07 00:12:56;;;;;;;1063.72;995.03;;;;;;;13.59;54.99;101777.25;689689;28;23314;-68
2022/05/07 00:13:17;;;;;;;1061.88;993.33;;;;;;;13.59;55.37;101782.66;688697;28;46738;-70
2022/05/07 00:13:38;;;;;;;1069.40;999.90;;;;;;;13.56;55.19;101777.59;689054;28;22442;-68
2022/05/07 00:13:59;;;;;;;1060.32;991.67;;;;;;;13.50;55.34;101770.13;685915;28;46227;-69
2022/05/07 00:14:21;;;;;;;1064.25;995.45;;;;;;;13.55;55.20;101775.03;686932;28;23717;-68
2022/05/07 00:14:42;;;;;;;1062.07;993.35;;;;;;;13.55;55.40;101780.47;686244;28;46332;-67
2022/05/07 00:15:04;;;;;;;1067.45;998.55;;;;;;;13.55;55.46;101786.72;686967;28;22414;-68
2022/05/07 00:15:26;;;;;;;1066.75;997.95;;;;;;;13.54;55.65;101773.34;687036;28;22515;-69
2022/05/07 00:18:22;;;;;;;1063.57;994.88;;;;;;;13.48;55.70;101775.72;683463;28;135307;-68
2022/05/07 00:18:43;;;;;;;1063.10;994.50;;;;;;;13.47;55.73;101782.16;687369;28;24028;-68
2022/05/07 00:19:04;;;;;;;1064.13;995.42;;;;;;;13.47;55.67;101778.59;686992;28;22377;-68
2022/05/07 00:19:26;;;;;;;1060.75;992.15;;;;;;;13.46;55.38;101783.19;687311;28;21466;-68
2022/05/07 00:19:47;;;;;;;1058.15;989.53;;;;;;;13.46;55.77;101769.63;685723;28;46283;-68
2022/05/07 00:20:10;;;;;;;1064.38;995.63;;;;;;;13.47;55.44;101770.47;686694;28;46336;-68
2022/05/07 00:20:32;;;;;;;1058.63;990.22;;;;;;;13.44;55.47;101768.09;686521;28;46488;-69
2022/05/07 00:20:54;;;;;;;1058.65;990.15;;;;;;;13.46;55.42;101772.34;686295;28;44110;-69
2022/05/07 00:21:15;;;;;;;1064.68;995.95;;;;;;;13.46;55.49;101777.78;686275;28;46580;-70
2022/05/07 00:21:36;;;;;;;1064.18;995.45;;;;;;;13.47;55.64;101773.19;663571;28;23513;-68
2022/05/07 00:22:00;;;;;;;1057.03;988.63;;;;;;;13.46;55.61;101787.75;689563;28;21531;-70
2022/05/07 00:22:22;;;;;;;1065.43;996.63;;;;;;;13.45;55.26;101773.34;686643;28;92362;-68
2022/05/07 00:22:43;;;;;;;1064.00;995.30;;;;;;;13.45;55.40;101778.78;689074;28;44384;-68
2022/05/07 00:23:04;;;;;;;1067.32;998.53;;;;;;;13.46;55.43;101774.19;689761;28;22623;-67
2022/05/07 00:23:29;;;;;;;1070.20;999.80;;;;;;;13.45;55.39;101784.22;689175;28;13097;-68
2022/05/07 00:23:50;;;;;;;1061.13;992.42;;;;;;;13.44;55.46;101768.94;686325;28;45260;-67
2022/05/07 00:24:12;;;;;;;1067.43;998.40;;;;;;;13.43;55.44;101778.13;686872;28;23470;-69
2022/05/07 00:24:33;;;;;;;1062.28;993.70;;;;;;;13.43;55.54;101783.53;685957;28;46303;-69
2022/05/07 00:24:54;;;;;;;1072.65;999.90;;;;;;;13.41;55.75;101780.13;686835;28;22424;-69
2022/05/07 00:25:15;;;;;;;1073.53;999.90;;;;;;;13.41;55.42;101785.56;686937;28;23434;-68
2022/05/07 00:25:37;;;;;;;1064.05;995.35;;;;;;;13.41;55.48;101779.28;687144;28;22387;-67
2022/05/07 00:25:58;;;;;;;1063.00;994.35;;;;;;;13.41;55.70;101782.00;686419;28;44386;-68
2022/05/07 00:26:20;;;;;;;1066.18;997.42;;;;;;;13.40;55.84;101783.88;687141;28;22420;-68
2022/05/07 00:26:41;;;;;;;1061.93;993.33;;;;;;;13.40;55.79;101781.16;663391;28;21632;-67
2022/05/07 00:27:02;;;;;;;1060.30;991.90;;;;;;;13.41;55.70;101779.28;689652;28;22367;-67
2022/05/07 00:27:28;;;;;;;1068.25;999.25;;;;;;;13.39;55.64;101779.47;688839;28;37535;-68
2022/05/07 00:27:49;;;;;;;1064.63;996.00;;;;;;;13.38;55.69;101785.06;688935;28;44552;-67
2022/05/07 00:28:10;;;;;;;1063.57;994.95;;;;;;;13.37;55.63;101783.34;689074;28;44206;-68
2022/05/07 00:28:33;;;;;;;1057.22;988.78;;;;;;;13.36;55.92;101781.69;687466;28;45308;-69
2022/05/07 00:28:55;;;;;;;1056.95;988.50;;;;;;;13.37;55.76;101783.34;687313;28;21506;-68
2022/05/07 00:29:16;;;;;;;1069.43;999.67;;;;;;;13.34;55.57;101779.97;685091;28;67140;-68
2022/05/07 00:29:37;;;;;;;1061.43;992.70;;;;;;;13.34;55.81;101781.84;686870;28;21202;-68
2022/05/07 00:29:59;;;;;;;1057.18;988.65;;;;;;;13.33;55.76;101780.97;689428;28;22231;-68
2022/05/07 00:30:21;;;;;;;1059.28;990.83;;;;;;;13.32;56.07;101783.81;688807;28;45347;-68
2022/05/07 00:30:42;;;;;;;1066.05;997.28;;;;;;;13.31;55.84;101782.16;689599;28;18214;-68
2022/05/07 00:31:04;;;;;;;1059.32;990.85;;;;;;;13.32;55.87;101781.09;688278;28;69423;-68
2022/05/07 00:31:26;;;;;;;1066.13;997.30;;;;;;;13.30;56.12;101777.72;661056;28;22411;-68
2022/05/07 00:31:47;;;;;;;1065.50;996.65;;;;;;;13.29;56.04;101773.31;685977;28;45278;-68
2022/05/07 00:32:09;;;;;;;1062.18;993.58;;;;;;;13.29;56.16;101782.31;686765;28;22391;-68
2022/05/07 00:32:31;;;;;;;1064.97;996.13;;;;;;;13.30;55.97;101778.56;685708;28;45194;-67
2022/05/07 00:32:52;;;;;;;1068.32;999.42;;;;;;;13.31;56.26;101780.28;686242;28;44323;-68
2022/05/07 00:33:13;;;;;;;1053.78;985.47;;;;;;;13.32;56.15;101781.09;687642;28;22404;-69
2022/05/07 00:33:34;;;;;;;1054.65;986.35;;;;;;;13.32;55.99;101772.97;686583;28;22366;-68
2022/05/07 00:33:56;;;;;;;1059.63;991.22;;;;;;;13.31;55.93;101777.56;686841;28;23518;-68
2022/05/07 00:34:18;;;;;;;1063.50;994.83;;;;;;;13.33;56.23;101774.72;686105;28;45305;-68
2022/05/07 00:34:39;;;;;;;1073.40;999.90;;;;;;;13.33;55.85;101770.13;686126;28;44370;-68
2022/05/07 00:35:00;;;;;;;1072.22;999.90;;;;;;;13.35;55.93;101778.09;686931;28;22405;-69
2022/05/07 00:35:23;;;;;;;1070.00;999.90;;;;;;;13.33;55.89;101772.84;684278;28;46332;-68
2022/05/07 00:35:44;;;;;;;1061.30;992.75;;;;;;;13.32;55.69;101772.97;685759;28;45053;-67
2022/05/07 00:36:06;;;;;;;1053.82;985.53;;;;;;;13.32;55.87;101773.84;686059;28;47497;-70
2022/05/07 00:36:27;;;;;;;1063.30;994.60;;;;;;;13.32;55.89;101779.28;685986;28;23460;-67
2022/05/07 00:36:49;;;;;;;1061.43;992.72;;;;;;;13.30;55.83;101773.13;687035;28;22417;-68
2022/05/07 00:37:11;;;;;;;1056.88;988.45;;;;;;;13.27;55.66;101773.47;686174;28;46115;-68
2022/05/07 00:37:32;;;;;;;1065.65;996.80;;;;;;;13.28;55.97;101779.78;685726;28;45022;-68
2022/05/07 00:37:53;;;;;;;1059.97;991.40;;;;;;;13.26;55.77;101770.94;687006;28;21529;-68
2022/05/07 00:38:15;;;;;;;1054.93;986.58;;;;;;;13.26;55.87;101779.94;686718;28;22389;-68
2022/05/07 00:38:37;;;;;;;1061.03;992.47;;;;;;;13.25;56.17;101777.41;682885;28;69462;-68
2022/05/07 00:38:58;;;;;;;1064.68;995.97;;;;;;;13.23;55.95;101777.56;684831;28;22365;-68
2022/05/07 00:39:19;;;;;;;1063.38;994.60;;;;;;;13.23;56.20;101774.84;686857;28;21543;-68
2022/05/07 00:39:41;;;;;;;1061.90;993.22;;;;;;;13.21;55.82;101779.56;686209;28;22373;-69
2022/05/07 00:40:02;;;;;;;1057.63;989.25;;;;;;;13.21;55.85;101773.31;686370;28;46099;-68
2022/05/07 00:40:24;;;;;;;1065.55;996.85;;;;;;;13.19;55.96;101775.38;686611;28;45322;-68
2022/05/07 00:40:45;;;;;;;1065.22;996.53;;;;;;;13.15;56.37;101773.00;689553;28;21530;-67
2022/05/07 00:41:06;;;;;;;1057.05;988.67;;;;;;;13.16;56.05;101777.41;687271;28;15727;-68
2022/05/07 00:41:28;;;;;;;1051.47;983.22;;;;;;;13.14;56.36;101775.88;684922;28;22378;-67
2022/05/07 00:41:49;;;;;;;1046.85;978.78;;;;;;;13.13;56.11;101777.75;684689;28;45201;-67
2022/05/07 00:42:10;;;;;;;1055.32;986.97;;;;;;;13.11;56.07;101779.75;685758;28;23268;-68
2022/05/07 00:42:31;;;;;;;1066.50;997.70;;;;;;;13.11;56.39;101773.50;685341;28;46306;-68
2022/05/07 00:42:53;;;;;;;1058.82;990.35;;;;;;;13.09;56.15;101781.78;686308;28;22390;-68
2022/05/07 00:43:15;;;;;;;1050.45;982.25;;;;;;;13.08;56.54;101774.66;688176;28;45255;-67
2022/05/07 00:43:37;;;;;;;1055.47;987.13;;;;;;;13.06;56.59;101778.56;688371;28;44369;-68
2022/05/07 00:43:59;;;;;;;1057.70;989.25;;;;;;;13.04;56.34;101778.75;686106;28;45259;-68
2022/05/07 00:44:22;;;;;;;1068.03;999.13;;;;;;;13.02;56.54;101774.50;686799;28;22158;-69
2022/05/07 00:44:43;;;;;;;1061.57;992.95;;;;;;;13.01;56.46;101775.50;682512;28;67592;-67
2022/05/07 00:45:05;;;;;;;1058.00;989.45;;;;;;;13.00;56.71;101777.38;683914;28;46281;-67
2022/05/07 00:45:26;;;;;;;1061.70;993.05;;;;;;;12.98;56.45;101777.53;680822;28;46338;-69
2022/05/07 00:45:50;;;;;;;1061.65;992.85;;;;;;;12.97;56.64;101773.13;681760;28;23479;-68
2022/05/07 00:46:12;;;;;;;1053.07;984.72;;;;;;;12.96;56.82;101771.44;681058;28;67530;-67
2022/05/07 00:46:33;;;;;;;1048.63;980.47;;;;;;;12.94;56.90;101776.16;661074;28;69151;-68
2022/05/07 00:47:03;;;;;;;1052.47;984.17;;;;;;;12.94;56.95;101778.03;691767;28;22372;-68
2022/05/07 00:47:25;;;;;;;1057.80;989.30;;;;;;;12.93;56.82;101776.34;685633;28;138184;-68
2022/05/07 00:47:46;;;;;;;1055.70;987.33;;;;;;;12.92;56.83;101774.66;687860;28;67465;-69
2022/05/07 00:48:18;;;;;;;1046.90;978.88;;;;;;;12.89;56.78;101775.84;686931;28;16248;-69
2022/05/07 00:48:42;;;;;;;1054.65;986.25;;;;;;;12.88;57.10;101776.84;680755;28;137592;-69
2022/05/07 00:49:03;;;;;;;1057.00;988.53;;;;;;;12.86;57.08;101781.59;686941;28;23902;-69
2022/05/07 00:49:28;;;;;;;1058.85;990.22;;;;;;;12.84;57.18;101769.22;689021;28;22421;-69
2022/05/07 00:49:50;;;;;;;1051.47;982.97;;;;;;;12.84;57.17;101771.94;686185;28;115916;-69
2022/05/07 00:51:37;;;;;;;1058.03;989.55;;;;;;;12.77;57.43;101769.91;681753;28;135939;-69
2022/05/07 00:51:59;;;;;;;1054.32;985.92;;;;;;;12.76;57.55;101770.91;686347;28;67263;-69
2022/05/07 00:52:27;;;;;;;1057.55;989.03;;;;;;;12.76;57.53;101768.19;691981;28;23492;-69
2022/05/07 00:52:48;;;;;;;1059.05;990.38;;;;;;;12.75;57.55;101771.06;685611;28;137913;-69
2022/05/07 00:53:10;;;;;;;1058.55;989.90;;;;;;;12.76;57.51;101765.47;688667;28;46326;-69
2022/05/07 00:53:32;;;;;;;1065.55;996.60;;;;;;;12.77;57.51;101769.03;689027;28;44402;-69
2022/05/07 00:54:09;;;;;;;1055.80;987.30;;;;;;;12.76;57.40;101779.03;689923;28;21497;-69
2022/05/07 00:54:35;;;;;;;1068.25;998.67;;;;;;;12.76;57.28;101764.63;685443;28;136025;-69
2022/05/07 00:54:58;;;;;;;1062.75;993.78;;;;;;;12.76;57.29;101770.06;685424;28;69397;-69
2022/05/07 00:55:19;;;;;;;1065.53;996.60;;;;;;;12.76;57.61;101762.78;686845;28;22459;-69
2022/05/07 00:55:40;;;;;;;1065.88;996.95;;;;;;;12.76;57.35;101761.94;687053;28;21526;-69
2022/05/07 00:56:02;;;;;;;1061.28;992.45;;;;;;;12.77;57.66;101764.47;686136;28;44176;-69
2022/05/07 00:56:24;;;;;;;1061.47;992.70;;;;;;;12.78;57.73;101776.16;686282;28;23451;-69
2022/05/07 00:56:45;;;;;;;1054.70;986.17;;;;;;;12.78;57.60;101770.72;686613;28;45250;-69
2022/05/07 00:57:07;;;;;;;1055.63;987.03;;;;;;;12.78;57.59;101766.16;689744;28;22382;-69
2022/05/07 00:57:29;;;;;;;1058.75;990.08;;;;;;;12.78;57.52;101771.56;687769;28;69272;-69
2022/05/07 00:57:51;;;;;;;1061.57;992.78;;;;;;;12.79;57.52;101765.16;687942;28;22403;-69
2022/05/07 00:58:12;;;;;;;1055.03;986.53;;;;;;;12.80;57.42;101765.97;687672;28;68204;-69
2022/05/07 00:58:34;;;;;;;1057.45;988.85;;;;;;;12.83;57.71;101768.38;686798;28;23507;-69
2022/05/07 00:58:56;;;;;;;1062.57;993.78;;;;;;;12.82;57.35;101763.09;687198;28;21527;-69
2022/05/07 00:59:18;;;;;;;1064.13;995.33;;;;;;;12.82;57.61;101763.97;685370;28;67554;-69
2022/05/07 00:59:40;;;;;;;1060.07;991.38;;;;;;;12.85;57.49;101768.19;683624;28;45381;-69
2022/05/07 01:00:02;;;;;;;1060.00;991.35;;;;;;;12.84;57.67;101764.66;683194;28;22465;-69
2022/05/07 01:00:24;;;;;;;1067.13;998.10;;;;;;;12.85;57.54;101769.03;684378;28;31158;-69
2022/05/07 01:00:46;;;;;;;1057.57;988.97;;;;;;;12.85;57.35;101758.19;686356;28;23496;-69
2022/05/07 01:01:07;;;;;;;1061.07;992.38;;;;;;;12.88;57.59;101767.88;681221;28;69440;-69
2022/05/07 01:01:28;;;;;;;1051.60;983.20;;;;;;;12.88;57.44;101765.16;683184;28;22360;-69
2022/05/07 01:01:51;;;;;;;1055.65;987.08;;;;;;;12.89;57.11;101764.16;685886;28;23409;-69
2022/05/07 01:02:12;;;;;;;1063.43;994.63;;;;;;;12.90;57.24;101763.97;686004;28;46221;-69
2022/05/07 01:02:33;;;;;;;1059.13;990.47;;;;;;;12.91;57.14;101765.66;688419;28;44363;-69
2022/05/07 01:02:54;;;;;;;1059.40;990.78;;;;;;;12.91;56.92;101762.09;686078;28;22231;-70
2022/05/07 01:03:16;;;;;;;1071.03;999.90;;;;;;;12.91;57.22;101765.66;687841;28;22399;-69
2022/05/07 01:03:39;;;;;;;1056.68;988.10;;;;;;;12.90;56.84;101763.97;683858;28;22501;-69
2022/05/07 01:04:01;;;;;;;1059.90;991.17;;;;;;;12.90;56.87;101757.69;679094;28;90498;-69
2022/05/07 01:04:25;;;;;;;1069.57;999.60;;;;;;;12.89;57.13;101753.31;679838;28;116142;-69
2022/05/07 01:04:47;;;;;;;1064.88;995.88;;;;;;;12.90;57.01;101758.56;684339;28;22197;-70
2022/05/07 01:05:10;;;;;;;1060.90;992.22;;;;;;;12.89;57.11;101756.84;685037;28;46287;-69
2022/05/07 01:05:31;;;;;;;1067.15;998.13;;;;;;;12.91;56.86;101762.09;683856;28;69507;-69
2022/05/07 01:05:54;;;;;;;1069.93;999.72;;;;;;;12.90;56.98;101761.28;684614;28;46376;-69
2022/05/07 01:06:15;;;;;;;1066.05;997.05;;;;;;;12.91;56.75;101768.38;687218;28;21351;-69
2022/05/07 01:06:37;;;;;;;1071.35;999.90;;;;;;;12.89;56.85;101753.31;685261;28;46389;-69
2022/05/07 01:07:03;;;;;;;1062.20;993.35;;;;;;;12.90;57.17;101760.41;681658;28;160947;-69
2022/05/07 01:07:25;;;;;;;1062.75;993.85;;;;;;;12.91;56.96;101759.41;684856;28;44384;-69
2022/05/07 01:07:46;;;;;;;1058.90;990.20;;;;;;;12.92;57.13;101763.81;682020;28;46450;-69
2022/05/07 01:08:11;;;;;;;1056.57;987.97;;;;;;;12.90;57.02;101754.97;682111;28;45225;-70
2022/05/07 01:08:33;;;;;;;1063.97;995.08;;;;;;;12.90;56.78;101745.00;682765;28;113636;-69
2022/05/07 01:08:55;;;;;;;1060.85;992.15;;;;;;;12.93;57.05;101754.66;683345;28;46316;-69
2022/05/07 01:09:17;;;;;;;1061.28;992.55;;;;;;;12.93;57.07;101760.94;683956;28;22403;-69
2022/05/07 01:09:39;;;;;;;1058.07;989.35;;;;;;;12.95;56.85;101758.06;683049;28;68318;-69
2022/05/07 01:10:01;;;;;;;1065.65;996.65;;;;;;;12.95;57.10;101761.59;684044;28;22390;-69
2022/05/07 01:10:25;;;;;;;1068.45;999.22;;;;;;;12.98;56.68;101757.72;684939;28;37796;-69
2022/05/07 01:10:47;;;;;;;1054.97;986.58;;;;;;;12.98;56.81;101755.00;686862;28;21527;-69
2022/05/07 01:11:09;;;;;;;1057.43;988.90;;;;;;;13.00;56.55;101760.28;683436;28;45298;-69
2022/05/07 01:11:31;;;;;;;1060.95;992.35;;;;;;;13.00;56.32;101763.81;679151;28;69420;-69
2022/05/07 01:11:56;;;;;;;1071.32;999.90;;;;;;;12.98;56.36;101753.13;679484;29;43954;-69
2022/05/07 01:12:18;;;;;;;1067.05;998.10;;;;;;;12.98;56.36;101752.31;678364;29;115715;-69
2022/05/07 01:12:41;;;;;;;1068.40;999.28;;;;;;;13.01;56.31;101753.81;679786;29;21257;-69
2022/05/07 01:13:04;;;;;;;1063.63;994.65;;;;;;;12.98;56.13;101749.59;680829;28;92269;-69
2022/05/07 01:13:26;;;;;;;1062.07;993.28;;;;;;;13.00;56.21;101758.41;686540;28;1385;-69
2022/05/07 01:13:50;;;;;;;1063.78;994.90;;;;;;;13.00;55.93;101750.25;682813;28;68343;-69
2022/05/07 01:14:11;;;;;;;1061.95;993.15;;;;;;;13.00;55.89;101747.53;682235;28;44397;-69
2022/05/07 01:14:33;;;;;;;1065.00;996.10;;;;;;;13.01;56.04;101751.97;683780;28;44382;-69
2022/05/07 01:14:56;;;;;;;1053.40;985.00;;;;;;;12.97;55.89;101743.28;684555;28;23450;-69
2022/05/07 01:15:17;;;;;;;1063.72;994.92;;;;;;;13.02;55.88;101752.81;682364;28;67022;-69
2022/05/07 01:15:44;;;;;;;1062.55;993.70;;;;;;;13.03;56.12;101757.22;679689;29;67061;-69
2022/05/07 01:16:06;;;;;;;1063.82;994.92;;;;;;;13.01;55.90;101753.81;679041;28;136305;-69
2022/05/07 01:16:31;;;;;;;1062.43;993.53;;;;;;;13.01;56.01;101751.97;679661;28;115171;-69
2022/05/07 01:16:54;;;;;;;1058.53;989.90;;;;;;;13.02;55.95;101747.38;683828;28;22351;-69
2022/05/07 01:17:15;;;;;;;1061.78;993.00;;;;;;;13.03;56.09;101749.09;681090;28;45228;-69
2022/05/07 01:17:36;;;;;;;1064.13;995.28;;;;;;;13.03;55.85;101754.50;682911;28;23496;-69
2022/05/07 01:18:03;;;;;;;1063.35;994.45;;;;;;;13.02;56.11;101747.38;680472;28;135779;-69
2022/05/07 01:18:24;;;;;;;1065.85;996.90;;;;;;;13.05;56.26;101749.75;682767;28;21469;-69
2022/05/07 01:18:46;;;;;;;1067.47;998.38;;;;;;;13.05;56.27;101753.31;681931;28;46841;-69
2022/05/07 01:19:07;;;;;;;1056.97;988.38;;;;;;;13.05;56.28;101755.19;682784;28;44396;-69
2022/05/07 01:19:28;;;;;;;1054.65;986.05;;;;;;;13.05;56.19;101756.00;686228;28;21917;-69
2022/05/07 01:19:53;;;;;;;1049.57;981.15;;;;;;;13.05;56.31;101753.31;681740;28;92255;-69
2022/05/07 01:20:16;;;;;;;1066.07;997.08;;;;;;;13.07;56.05;101750.41;684059;28;45235;-69
2022/05/07 01:20:39;;;;;;;1065.43;996.45;;;;;;;13.07;56.34;101755.84;684986;28;113471;-69
2022/05/07 01:21:07;;;;;;;1060.90;992.15;;;;;;;13.07;56.25;101759.44;689328;28;21505;-69
2022/05/07 01:21:33;;;;;;;1062.03;993.28;;;;;;;13.06;56.43;101754.16;683366;28;137591;-69
2022/05/07 01:22:00;;;;;;;1065.85;996.85;;;;;;;13.08;56.34;101755.69;685857;28;92132;-68
2022/05/07 01:22:21;;;;;;;1058.20;989.63;;;;;;;13.07;56.43;101745.88;684536;28;136295;-69
2022/05/07 01:22:57;;;;;;;1060.22;991.58;;;;;;;13.07;56.12;101748.59;685801;28;23489;-69
2022/05/07 01:23:22;;;;;;;1057.07;988.63;;;;;;;13.09;56.27;101751.97;681516;28;161559;-69
2022/05/07 01:23:47;;;;;;;1060.95;992.25;;;;;;;13.08;56.13;101752.97;683640;28;67462;-69
2022/05/07 01:24:08;;;;;;;1058.18;989.53;;;;;;;13.10;56.33;101752.78;680859;28;113482;-69
2022/05/07 01:24:33;;;;;;;1064.88;995.97;;;;;;;13.06;56.21;101746.03;682997;28;90260;-69
2022/05/07 01:24:54;;;;;;;1060.88;992.17;;;;;;;13.10;56.20;101747.38;683409;28;46387;-69
2022/05/07 01:25:15;;;;;;;1075.63;999.90;;;;;;;13.10;56.11;101741.94;683894;28;22424;-69
2022/05/07 01:25:37;;;;;;;1103.43;999.90;;;;;;;13.11;56.04;101752.63;684841;28;21500;-69
2022/05/07 01:26:00;;;;;;;1077.05;999.90;;;;;;;13.11;56.19;101743.66;686053;28;46377;-69
2022/05/07 01:26:25;;;;;;;1072.10;999.90;;;;;;;13.09;56.36;101751.97;682254;28;121668;-68
2022/05/07 01:26:47;;;;;;;1078.90;999.90;;;;;;;13.09;56.32;101751.97;684051;28;69563;-69
2022/05/07 01:27:08;;;;;;;1077.55;999.90;;;;;;;13.10;56.44;101745.53;682874;28;22105;-69
2022/05/07 01:27:30;;;;;;;1076.50;999.90;;;;;;;13.10;56.29;101750.97;680199;28;21508;-69
2022/05/07 01:27:51;;;;;;;1085.20;999.90;;;;;;;13.11;56.46;101744.50;680897;28;46690;-69
2022/05/07 01:28:13;;;;;;;1084.22;999.90;;;;;;;13.11;56.17;101751.78;683958;28;22371;-69
2022/05/07 01:28:35;;;;;;;1078.43;999.90;;;;;;;13.12;56.08;101756.22;682821;28;67219;-69
2022/05/07 01:28:59;;;;;;;1073.60;999.90;;;;;;;13.12;56.23;101746.19;683580;28;69450;-69
2022/05/07 01:29:21;;;;;;;1077.57;999.90;;;;;;;13.10;56.00;101750.09;685022;28;69987;-69
2022/05/07 01:29:43;;;;;;;1079.88;999.90;;;;;;;13.12;55.98;101750.78;687604;28;22229;-69
2022/05/07 01:30:06;;;;;;;1075.78;999.90;;;;;;;13.10;56.01;101748.25;685178;28;44350;-69
2022/05/07 01:30:30;;;;;;;1086.53;999.90;;;;;;;13.09;55.90;101749.25;682914;28;137778;-69
2022/05/07 01:30:51;;;;;;;1079.32;999.90;;;;;;;13.09;55.90;101748.41;685741;28;45263;-69
2022/05/07 01:31:13;;;;;;;1075.75;999.90;;;;;;;13.09;55.97;101746.53;687113;28;23443;-69
2022/05/07 01:31:37;;;;;;;1068.90;999.70;;;;;;;13.09;55.76;101753.84;686154;28;45370;-69
2022/05/07 01:31:58;;;;;;;1079.75;999.90;;;;;;;13.07;55.95;101745.88;687031;28;78962;-69
2022/05/07 01:32:20;;;;;;;1088.03;999.90;;;;;;;13.06;56.20;101740.59;688618;28;46559;-69
2022/05/07 01:32:42;;;;;;;1079.03;999.90;;;;;;;13.05;55.87;101749.75;688029;28;21513;-69
2022/05/07 01:33:03;;;;;;;1077.57;999.90;;;;;;;13.03;56.01;101744.50;686581;28;46398;-69
2022/05/07 01:33:25;;;;;;;1067.63;998.53;;;;;;;13.04;56.34;101750.75;684600;28;46828;-69
2022/05/07 01:33:48;;;;;;;1076.25;999.90;;;;;;;13.01;56.15;101741.13;684479;28;22305;-69
2022/05/07 01:34:12;;;;;;;1083.88;999.90;;;;;;;13.01;56.53;101748.38;681009;28;115866;-69
2022/05/07 01:34:37;;;;;;;1082.07;999.90;;;;;;;13.02;56.19;101748.22;682456;28;113522;-69
2022/05/07 01:34:58;;;;;;;1075.38;999.90;;;;;;;13.02;56.53;101747.38;683661;28;22384;-69
2022/05/07 01:35:19;;;;;;;1081.50;999.90;;;;;;;13.00;56.50;101750.25;685400;28;23698;-69
2022/05/07 01:35:44;;;;;;;1070.68;999.90;;;;;;;13.00;56.20;101749.41;682120;28;92254;-69
2022/05/07 01:36:10;;;;;;;1066.07;997.08;;;;;;;12.97;56.51;101748.72;680351;28;46331;-69
2022/05/07 01:36:32;;;;;;;1065.95;996.95;;;;;;;12.96;56.57;101749.75;676855;28;138016;-69
2022/05/07 01:36:57;;;;;;;1064.32;995.35;;;;;;;12.95;56.45;101750.75;678908;28;137849;-69
2022/05/07 01:37:19;;;;;;;1077.65;999.90;;;;;;;12.95;56.62;101747.22;683947;28;21523;-69
2022/05/07 01:37:41;;;;;;;1081.13;999.90;;;;;;;12.92;56.64;101753.81;685122;28;45250;-69
2022/05/07 01:38:05;;;;;;;1075.25;999.90;;;;;;;12.92;56.57;101758.41;688832;28;21529;-69
2022/05/07 01:38:29;;;;;;;1078.65;999.90;;;;;;;12.90;56.69;101754.97;685607;28;136315;-69
2022/05/07 01:38:51;;;;;;;1067.88;998.78;;;;;;;12.86;56.90;101751.75;686298;28;45242;-69
2022/05/07 01:39:13;;;;;;;1061.65;992.80;;;;;;;12.88;56.96;101754.31;685523;28;45229;-69
2022/05/07 01:39:35;;;;;;;1060.45;991.40;;;;;;;12.87;56.74;101750.75;685270;28;45030;-69
2022/05/07 01:39:56;;;;;;;1074.05;999.90;;;;;;;12.86;56.82;101751.75;685920;28;45272;-69
2022/05/07 01:40:18;;;;;;;1070.45;999.90;;;;;;;12.83;57.20;101749.38;686591;28;21505;-69
2022/05/07 01:40:43;;;;;;;1064.97;996.00;;;;;;;12.87;56.93;101748.03;680909;28;115067;-69
2022/05/07 01:41:04;;;;;;;1070.32;999.90;;;;;;;12.88;57.16;101748.88;683020;28;46346;-69
2022/05/07 01:41:26;;;;;;;1076.30;999.90;;;;;;;12.88;57.13;101747.00;681039;28;44345;-69
2022/05/07 01:41:48;;;;;;;1073.25;999.90;;;;;;;12.88;56.87;101748.88;686146;28;44189;-69
2022/05/07 01:42:10;;;;;;;1070.68;999.90;;;;;;;12.89;56.83;101754.13;688093;28;23549;-69
2022/05/07 01:42:32;;;;;;;1071.43;999.90;;;;;;;12.89;56.79;101747.88;685030;28;67459;-69
2022/05/07 01:42:53;;;;;;;1074.05;999.90;;;;;;;12.89;56.69;101748.72;687035;28;21184;-69
2022/05/07 01:43:15;;;;;;;1070.25;999.90;;;;;;;12.89;56.83;101751.44;686678;28;45238;-69